< < Back
Terminal Aerodrome Forecast


Current Version              Previous Versions:   1  2  3  4  5  6  7  8  9  

Terminal Aerodrome Forecast

151
FTUS42 KFFC 230900 AAB
TAFATL
TAF AMD
KATL 230932Z 2310/2412 05010KT P6SM SKC
     FM231200 06010G20KT P6SM SCT020 SCT040
      TEMPO 2312/2315 BKN040
     FM231600 07012G20KT P6SM SCT040
     FM240100 07012G18KT P6SM SCT040=

Latest METAR

659
SAUS70 KWBC 231400 RRC
MTRATL
METAR KATL 231352Z 07015KT 10SM FEW070 20/12 A3021 RMK AO2 SLP224
T02000117


USA.gov is the U.S. government's official web portal to all federal, state and local government web resources and services.